sensor_id;sensor_type;location;lat;lon;timestamp;P1;durP1;ratioP1;P2;durP2;ratioP2
21494;SDS011;10909;53.590;10.054;2023-05-07T00:02:21;5.57;;;5.03;;
21494;SDS011;10909;53.590;10.054;2023-05-07T00:04:47;5.40;;;4.47;;
21494;SDS011;10909;53.590;10.054;2023-05-07T00:07:13;5.30;;;4.80;;
21494;SDS011;10909;53.590;10.054;2023-05-07T00:09:40;5.23;;;4.73;;
21494;SDS011;10909;53.590;10.054;2023-05-07T00:12:05;5.10;;;4.70;;
21494;SDS011;10909;53.590;10.054;2023-05-07T00:14:32;5.57;;;4.93;;
21494;SDS011;10909;53.590;10.054;2023-05-07T00:16:57;6.10;;;4.60;;
21494;SDS011;10909;53.590;10.054;2023-05-07T00:19:23;6.13;;;5.30;;
21494;SDS011;10909;53.590;10.054;2023-05-07T00:21:52;5.80;;;4.53;;
21494;SDS011;10909;53.590;10.054;2023-05-07T00:24:19;5.23;;;4.73;;
21494;SDS011;10909;53.590;10.054;2023-05-07T00:26:44;4.97;;;4.43;;
21494;SDS011;10909;53.590;10.054;2023-05-07T00:29:10;5.47;;;4.97;;
21494;SDS011;10909;53.590;10.054;2023-05-07T00:31:36;5.93;;;5.33;;
21494;SDS011;10909;53.590;10.054;2023-05-07T00:34:02;5.70;;;5.10;;
21494;SDS011;10909;53.590;10.054;2023-05-07T00:36:27;6.37;;;5.60;;
21494;SDS011;10909;53.590;10.054;2023-05-07T00:38:54;6.33;;;5.57;;
21494;SDS011;10909;53.590;10.054;2023-05-07T00:41:21;5.47;;;4.97;;
21494;SDS011;10909;53.590;10.054;2023-05-07T00:43:47;5.20;;;4.70;;
21494;SDS011;10909;53.590;10.054;2023-05-07T00:46:13;5.50;;;5.00;;
21494;SDS011;10909;53.590;10.054;2023-05-07T00:48:40;5.13;;;4.70;;
21494;SDS011;10909;53.590;10.054;2023-05-07T00:51:06;6.90;;;5.23;;
21494;SDS011;10909;53.590;10.054;2023-05-07T00:53:32;5.67;;;5.07;;
21494;SDS011;10909;53.590;10.054;2023-05-07T00:55:57;5.27;;;4.77;;
21494;SDS011;10909;53.590;10.054;2023-05-07T00:58:23;5.77;;;5.20;;
21494;SDS011;10909;53.590;10.054;2023-05-07T01:00:49;6.20;;;5.37;;
21494;SDS011;10909;53.590;10.054;2023-05-07T01:03:15;5.53;;;4.90;;
21494;SDS011;10909;53.590;10.054;2023-05-07T01:05:41;5.80;;;5.20;;
21494;SDS011;10909;53.590;10.054;2023-05-07T01:08:08;5.60;;;5.03;;
21494;SDS011;10909;53.590;10.054;2023-05-07T01:10:34;5.17;;;4.67;;
21494;SDS011;10909;53.590;10.054;2023-05-07T01:13:00;5.87;;;5.27;;
21494;SDS011;10909;53.590;10.054;2023-05-07T01:15:26;5.70;;;5.10;;
21494;SDS011;10909;53.590;10.054;2023-05-07T01:17:52;5.73;;;5.07;;
21494;SDS011;10909;53.590;10.054;2023-05-07T01:20:18;6.37;;;5.10;;
21494;SDS011;10909;53.590;10.054;2023-05-07T01:22:44;5.40;;;4.90;;
21494;SDS011;10909;53.590;10.054;2023-05-07T01:25:12;5.50;;;5.00;;
21494;SDS011;10909;53.590;10.054;2023-05-07T01:27:38;5.17;;;4.67;;
21494;SDS011;10909;53.590;10.054;2023-05-07T01:30:04;5.87;;;5.23;;
21494;SDS011;10909;53.590;10.054;2023-05-07T01:35:17;4.80;;;4.33;;
21494;SDS011;10909;53.590;10.054;2023-05-07T01:37:46;5.13;;;4.63;;
21494;SDS011;10909;53.590;10.054;2023-05-07T01:40:12;6.40;;;5.17;;
21494;SDS011;10909;53.590;10.054;2023-05-07T01:42:38;5.17;;;4.67;;
21494;SDS011;10909;53.590;10.054;2023-05-07T01:45:06;5.30;;;4.80;;
21494;SDS011;10909;53.590;10.054;2023-05-07T01:47:31;4.93;;;4.43;;
21494;SDS011;10909;53.590;10.054;2023-05-07T01:49:58;5.60;;;4.87;;
21494;SDS011;10909;53.590;10.054;2023-05-07T01:52:23;4.97;;;4.47;;
21494;SDS011;10909;53.590;10.054;2023-05-07T01:54:50;5.33;;;4.83;;
21494;SDS011;10909;53.590;10.054;2023-05-07T01:57:17;5.13;;;4.67;;
21494;SDS011;10909;53.590;10.054;2023-05-07T01:59:43;5.13;;;4.63;;
21494;SDS011;10909;53.590;10.054;2023-05-07T02:02:09;6.10;;;4.57;;
21494;SDS011;10909;53.590;10.054;2023-05-07T02:04:34;4.80;;;4.30;;
21494;SDS011;10909;53.590;10.054;2023-05-07T02:07:01;5.03;;;4.17;;
21494;SDS011;10909;53.590;10.054;2023-05-07T02:09:29;4.37;;;3.97;;
21494;SDS011;10909;53.590;10.054;2023-05-07T02:11:55;4.63;;;4.17;;
21494;SDS011;10909;53.590;10.054;2023-05-07T02:14:21;4.77;;;4.33;;
21494;SDS011;10909;53.590;10.054;2023-05-07T02:16:46;4.87;;;4.37;;
21494;SDS011;10909;53.590;10.054;2023-05-07T02:19:12;5.33;;;4.27;;
21494;SDS011;10909;53.590;10.054;2023-05-07T02:21:38;5.00;;;4.50;;
21494;SDS011;10909;53.590;10.054;2023-05-07T02:24:04;5.60;;;4.60;;
21494;SDS011;10909;53.590;10.054;2023-05-07T02:26:31;4.67;;;4.23;;
21494;SDS011;10909;53.590;10.054;2023-05-07T02:28:57;4.63;;;4.17;;
21494;SDS011;10909;53.590;10.054;2023-05-07T02:31:22;5.13;;;4.50;;
21494;SDS011;10909;53.590;10.054;2023-05-07T02:33:48;4.90;;;4.40;;
21494;SDS011;10909;53.590;10.054;2023-05-07T02:36:14;4.93;;;4.17;;
21494;SDS011;10909;53.590;10.054;2023-05-07T02:38:39;4.50;;;3.80;;
21494;SDS011;10909;53.590;10.054;2023-05-07T02:41:05;4.70;;;4.30;;
21494;SDS011;10909;53.590;10.054;2023-05-07T02:43:31;4.70;;;4.17;;
21494;SDS011;10909;53.590;10.054;2023-05-07T02:46:00;4.10;;;3.70;;
21494;SDS011;10909;53.590;10.054;2023-05-07T02:48:27;5.00;;;4.50;;
21494;SDS011;10909;53.590;10.054;2023-05-07T02:50:53;5.13;;;4.63;;
21494;SDS011;10909;53.590;10.054;2023-05-07T02:53:19;5.10;;;4.60;;
21494;SDS011;10909;53.590;10.054;2023-05-07T02:55:44;5.43;;;4.50;;
21494;SDS011;10909;53.590;10.054;2023-05-07T02:58:10;5.00;;;4.50;;
21494;SDS011;10909;53.590;10.054;2023-05-07T03:00:36;5.27;;;4.77;;
21494;SDS011;10909;53.590;10.054;2023-05-07T03:03:01;5.60;;;5.00;;
21494;SDS011;10909;53.590;10.054;2023-05-07T03:05:27;5.07;;;4.50;;
21494;SDS011;10909;53.590;10.054;2023-05-07T03:07:53;5.67;;;5.00;;
21494;SDS011;10909;53.590;10.054;2023-05-07T03:10:18;6.13;;;5.07;;
21494;SDS011;10909;53.590;10.054;2023-05-07T03:12:44;5.47;;;4.97;;
21494;SDS011;10909;53.590;10.054;2023-05-07T03:15:10;6.57;;;5.23;;
21494;SDS011;10909;53.590;10.054;2023-05-07T03:17:37;5.60;;;5.10;;
21494;SDS011;10909;53.590;10.054;2023-05-07T03:20:03;5.87;;;5.27;;
21494;SDS011;10909;53.590;10.054;2023-05-07T03:22:29;5.70;;;4.87;;
21494;SDS011;10909;53.590;10.054;2023-05-07T03:24:55;5.47;;;4.83;;
21494;SDS011;10909;53.590;10.054;2023-05-07T03:27:21;5.37;;;4.43;;
21494;SDS011;10909;53.590;10.054;2023-05-07T03:29:47;5.50;;;4.93;;
21494;SDS011;10909;53.590;10.054;2023-05-07T03:32:12;5.73;;;5.13;;
21494;SDS011;10909;53.590;10.054;2023-05-07T03:34:38;5.63;;;5.13;;
21494;SDS011;10909;53.590;10.054;2023-05-07T03:37:04;6.00;;;5.40;;
21494;SDS011;10909;53.590;10.054;2023-05-07T03:39:29;5.50;;;5.00;;
21494;SDS011;10909;53.590;10.054;2023-05-07T03:41:55;5.60;;;4.90;;
21494;SDS011;10909;53.590;10.054;2023-05-07T03:44:21;6.23;;;5.00;;
21494;SDS011;10909;53.590;10.054;2023-05-07T03:46:47;5.07;;;4.57;;
21494;SDS011;10909;53.590;10.054;2023-05-07T03:49:13;5.50;;;5.00;;
21494;SDS011;10909;53.590;10.054;2023-05-07T03:51:38;5.33;;;4.83;;
21494;SDS011;10909;53.590;10.054;2023-05-07T03:54:04;7.03;;;4.70;;
21494;SDS011;10909;53.590;10.054;2023-05-07T03:56:30;4.63;;;4.13;;
21494;SDS011;10909;53.590;10.054;2023-05-07T03:58:56;5.33;;;4.60;;
21494;SDS011;10909;53.590;10.054;2023-05-07T04:01:21;5.40;;;4.87;;
21494;SDS011;10909;53.590;10.054;2023-05-07T04:03:48;5.33;;;4.83;;
21494;SDS011;10909;53.590;10.054;2023-05-07T04:06:15;5.20;;;4.70;;
21494;SDS011;10909;53.590;10.054;2023-05-07T04:08:42;5.73;;;5.23;;
21494;SDS011;10909;53.590;10.054;2023-05-07T04:11:08;5.30;;;4.80;;
21494;SDS011;10909;53.590;10.054;2023-05-07T04:13:33;5.50;;;4.97;;
21494;SDS011;10909;53.590;10.054;2023-05-07T04:16:00;5.73;;;4.97;;
21494;SDS011;10909;53.590;10.054;2023-05-07T04:18:27;5.93;;;4.40;;
21494;SDS011;10909;53.590;10.054;2023-05-07T04:20:53;4.93;;;4.43;;
21494;SDS011;10909;53.590;10.054;2023-05-07T04:23:19;5.70;;;4.70;;
21494;SDS011;10909;53.590;10.054;2023-05-07T04:25:44;5.33;;;4.80;;
21494;SDS011;10909;53.590;10.054;2023-05-07T04:28:10;5.23;;;4.50;;
21494;SDS011;10909;53.590;10.054;2023-05-07T04:30:36;6.23;;;4.73;;
21494;SDS011;10909;53.590;10.054;2023-05-07T04:33:02;4.77;;;4.23;;
21494;SDS011;10909;53.590;10.054;2023-05-07T04:35:28;5.43;;;4.83;;
21494;SDS011;10909;53.590;10.054;2023-05-07T04:37:53;4.73;;;4.17;;
21494;SDS011;10909;53.590;10.054;2023-05-07T04:40:19;4.40;;;4.00;;
21494;SDS011;10909;53.590;10.054;2023-05-07T04:42:47;5.10;;;4.27;;
21494;SDS011;10909;53.590;10.054;2023-05-07T04:45:13;4.40;;;4.00;;
21494;SDS011;10909;53.590;10.054;2023-05-07T04:47:39;4.50;;;4.10;;
21494;SDS011;10909;53.590;10.054;2023-05-07T04:50:05;5.57;;;4.07;;
21494;SDS011;10909;53.590;10.054;2023-05-07T04:52:32;4.30;;;3.90;;
21494;SDS011;10909;53.590;10.054;2023-05-07T04:55:01;4.00;;;3.53;;
21494;SDS011;10909;53.590;10.054;2023-05-07T04:57:27;5.60;;;4.63;;
21494;SDS011;10909;53.590;10.054;2023-05-07T04:59:54;5.17;;;4.67;;
21494;SDS011;10909;53.590;10.054;2023-05-07T05:02:20;5.33;;;4.50;;
21494;SDS011;10909;53.590;10.054;2023-05-07T05:04:45;4.80;;;4.30;;
21494;SDS011;10909;53.590;10.054;2023-05-07T05:07:11;5.80;;;4.97;;
21494;SDS011;10909;53.590;10.054;2023-05-07T05:09:37;4.60;;;4.20;;
21494;SDS011;10909;53.590;10.054;2023-05-07T05:12:02;5.37;;;4.83;;
21494;SDS011;10909;53.590;10.054;2023-05-07T05:14:29;5.07;;;4.40;;
21494;SDS011;10909;53.590;10.054;2023-05-07T05:16:54;5.60;;;4.13;;
21494;SDS011;10909;53.590;10.054;2023-05-07T05:19:20;4.77;;;4.27;;
21494;SDS011;10909;53.590;10.054;2023-05-07T05:21:46;5.33;;;4.83;;
21494;SDS011;10909;53.590;10.054;2023-05-07T05:24:11;7.23;;;4.70;;
21494;SDS011;10909;53.590;10.054;2023-05-07T05:26:37;5.23;;;4.63;;
21494;SDS011;10909;53.590;10.054;2023-05-07T05:29:03;4.87;;;4.40;;
21494;SDS011;10909;53.590;10.054;2023-05-07T05:31:29;5.57;;;4.60;;
21494;SDS011;10909;53.590;10.054;2023-05-07T05:33:54;5.27;;;4.50;;
21494;SDS011;10909;53.590;10.054;2023-05-07T05:36:20;5.60;;;5.10;;
21494;SDS011;10909;53.590;10.054;2023-05-07T05:38:46;5.10;;;4.60;;
21494;SDS011;10909;53.590;10.054;2023-05-07T05:41:11;5.60;;;4.57;;
21494;SDS011;10909;53.590;10.054;2023-05-07T05:43:37;5.63;;;4.60;;
21494;SDS011;10909;53.590;10.054;2023-05-07T05:46:03;5.03;;;4.53;;
21494;SDS011;10909;53.590;10.054;2023-05-07T05:48:29;7.17;;;5.10;;
21494;SDS011;10909;53.590;10.054;2023-05-07T05:50:55;5.30;;;4.60;;
21494;SDS011;10909;53.590;10.054;2023-05-07T05:53:21;4.80;;;4.33;;
21494;SDS011;10909;53.590;10.054;2023-05-07T05:55:46;4.63;;;4.13;;
21494;SDS011;10909;53.590;10.054;2023-05-07T05:58:12;5.63;;;4.63;;
21494;SDS011;10909;53.590;10.054;2023-05-07T06:00:40;5.20;;;4.70;;
21494;SDS011;10909;53.590;10.054;2023-05-07T06:03:05;4.90;;;4.40;;
21494;SDS011;10909;53.590;10.054;2023-05-07T06:05:31;7.27;;;4.90;;
21494;SDS011;10909;53.590;10.054;2023-05-07T06:07:57;4.50;;;4.10;;
21494;SDS011;10909;53.590;10.054;2023-05-07T06:10:22;4.73;;;4.23;;
21494;SDS011;10909;53.590;10.054;2023-05-07T06:12:49;4.43;;;4.03;;
21494;SDS011;10909;53.590;10.054;2023-05-07T06:15:16;4.60;;;4.10;;
21494;SDS011;10909;53.590;10.054;2023-05-07T06:17:42;5.97;;;4.40;;
21494;SDS011;10909;53.590;10.054;2023-05-07T06:20:08;5.93;;;4.03;;
21494;SDS011;10909;53.590;10.054;2023-05-07T06:22:33;4.63;;;4.20;;
21494;SDS011;10909;53.590;10.054;2023-05-07T06:24:59;4.73;;;4.13;;
21494;SDS011;10909;53.590;10.054;2023-05-07T06:27:25;4.40;;;4.00;;
21494;SDS011;10909;53.590;10.054;2023-05-07T06:29:52;4.90;;;4.40;;
21494;SDS011;10909;53.590;10.054;2023-05-07T06:32:18;4.47;;;4.07;;
21494;SDS011;10909;53.590;10.054;2023-05-07T06:34:44;4.60;;;4.20;;
21494;SDS011;10909;53.590;10.054;2023-05-07T06:37:10;5.27;;;3.90;;
21494;SDS011;10909;53.590;10.054;2023-05-07T06:39:35;4.73;;;4.30;;
21494;SDS011;10909;53.590;10.054;2023-05-07T06:42:02;3.83;;;3.47;;
21494;SDS011;10909;53.590;10.054;2023-05-07T06:44:29;3.83;;;3.50;;
21494;SDS011;10909;53.590;10.054;2023-05-07T06:46:56;4.43;;;3.83;;
21494;SDS011;10909;53.590;10.054;2023-05-07T06:49:21;3.97;;;3.63;;
21494;SDS011;10909;53.590;10.054;2023-05-07T06:51:47;4.20;;;3.47;;
21494;SDS011;10909;53.590;10.054;2023-05-07T06:54:13;4.83;;;3.33;;
21494;SDS011;10909;53.590;10.054;2023-05-07T06:56:41;4.23;;;3.83;;
21494;SDS011;10909;53.590;10.054;2023-05-07T06:59:07;4.00;;;3.60;;
21494;SDS011;10909;53.590;10.054;2023-05-07T07:01:33;5.40;;;3.80;;
21494;SDS011;10909;53.590;10.054;2023-05-07T07:03:59;3.60;;;3.30;;
21494;SDS011;10909;53.590;10.054;2023-05-07T07:06:25;4.40;;;4.00;;
21494;SDS011;10909;53.590;10.054;2023-05-07T07:08:51;3.83;;;3.50;;
21494;SDS011;10909;53.590;10.054;2023-05-07T07:11:17;3.90;;;3.50;;
21494;SDS011;10909;53.590;10.054;2023-05-07T07:13:43;4.03;;;3.63;;
21494;SDS011;10909;53.590;10.054;2023-05-07T07:16:09;5.37;;;3.60;;
21494;SDS011;10909;53.590;10.054;2023-05-07T07:18:36;5.20;;;3.80;;
21494;SDS011;10909;53.590;10.054;2023-05-07T07:21:05;4.50;;;4.10;;
21494;SDS011;10909;53.590;10.054;2023-05-07T07:23:31;4.57;;;3.77;;
21494;SDS011;10909;53.590;10.054;2023-05-07T07:25:56;4.10;;;3.70;;
21494;SDS011;10909;53.590;10.054;2023-05-07T07:28:22;3.80;;;3.13;;
21494;SDS011;10909;53.590;10.054;2023-05-07T07:30:51;3.83;;;3.40;;
21494;SDS011;10909;53.590;10.054;2023-05-07T07:33:16;3.77;;;3.43;;
21494;SDS011;10909;53.590;10.054;2023-05-07T07:35:42;4.00;;;3.60;;
21494;SDS011;10909;53.590;10.054;2023-05-07T07:38:08;3.60;;;3.30;;
21494;SDS011;10909;53.590;10.054;2023-05-07T07:40:34;4.07;;;3.57;;
21494;SDS011;10909;53.590;10.054;2023-05-07T07:43:01;3.57;;;3.27;;
21494;SDS011;10909;53.590;10.054;2023-05-07T07:45:27;3.77;;;3.47;;
21494;SDS011;10909;53.590;10.054;2023-05-07T07:47:57;3.67;;;3.37;;
21494;SDS011;10909;53.590;10.054;2023-05-07T07:50:22;4.23;;;3.83;;
21494;SDS011;10909;53.590;10.054;2023-05-07T07:52:48;6.93;;;4.37;;
21494;SDS011;10909;53.590;10.054;2023-05-07T07:55:14;4.97;;;3.50;;
21494;SDS011;10909;53.590;10.054;2023-05-07T07:57:45;4.17;;;3.10;;
21494;SDS011;10909;53.590;10.054;2023-05-07T08:00:12;4.00;;;3.50;;
21494;SDS011;10909;53.590;10.054;2023-05-07T08:02:41;4.30;;;3.30;;
21494;SDS011;10909;53.590;10.054;2023-05-07T08:05:07;3.47;;;3.17;;
21494;SDS011;10909;53.590;10.054;2023-05-07T08:07:33;3.40;;;3.10;;
21494;SDS011;10909;53.590;10.054;2023-05-07T08:09:59;3.63;;;3.33;;
21494;SDS011;10909;53.590;10.054;2023-05-07T08:12:29;3.33;;;3.03;;
21494;SDS011;10909;53.590;10.054;2023-05-07T08:14:55;3.83;;;3.30;;
21494;SDS011;10909;53.590;10.054;2023-05-07T08:17:21;4.10;;;3.70;;
21494;SDS011;10909;53.590;10.054;2023-05-07T08:19:47;3.50;;;3.20;;
21494;SDS011;10909;53.590;10.054;2023-05-07T08:22:13;3.90;;;3.50;;
21494;SDS011;10909;53.590;10.054;2023-05-07T08:24:39;4.67;;;3.30;;
21494;SDS011;10909;53.590;10.054;2023-05-07T08:27:05;3.50;;;3.20;;
21494;SDS011;10909;53.590;10.054;2023-05-07T08:29:31;4.13;;;3.30;;
21494;SDS011;10909;53.590;10.054;2023-05-07T08:31:57;4.03;;;3.63;;
21494;SDS011;10909;53.590;10.054;2023-05-07T08:34:23;4.13;;;3.23;;
21494;SDS011;10909;53.590;10.054;2023-05-07T08:36:48;3.93;;;3.57;;
21494;SDS011;10909;53.590;10.054;2023-05-07T08:39:17;4.57;;;3.60;;
21494;SDS011;10909;53.590;10.054;2023-05-07T08:41:44;4.00;;;3.60;;
21494;SDS011;10909;53.590;10.054;2023-05-07T08:44:14;3.90;;;3.50;;
21494;SDS011;10909;53.590;10.054;2023-05-07T08:46:43;4.40;;;3.40;;
21494;SDS011;10909;53.590;10.054;2023-05-07T08:49:11;4.03;;;3.57;;
21494;SDS011;10909;53.590;10.054;2023-05-07T08:51:38;3.70;;;3.30;;
21494;SDS011;10909;53.590;10.054;2023-05-07T08:54:04;4.60;;;3.27;;
21494;SDS011;10909;53.590;10.054;2023-05-07T08:56:30;3.57;;;3.27;;
21494;SDS011;10909;53.590;10.054;2023-05-07T08:58:56;3.30;;;3.00;;
21494;SDS011;10909;53.590;10.054;2023-05-07T09:01:23;3.43;;;3.03;;
21494;SDS011;10909;53.590;10.054;2023-05-07T09:03:50;3.33;;;3.03;;
21494;SDS011;10909;53.590;10.054;2023-05-07T09:06:17;3.60;;;3.30;;
21494;SDS011;10909;53.590;10.054;2023-05-07T09:08:51;4.40;;;3.33;;
21494;SDS011;10909;53.590;10.054;2023-05-07T09:11:21;3.73;;;3.23;;
21494;SDS011;10909;53.590;10.054;2023-05-07T09:13:53;3.10;;;2.80;;
21494;SDS011;10909;53.590;10.054;2023-05-07T09:16:21;3.10;;;2.80;;
21494;SDS011;10909;53.590;10.054;2023-05-07T09:18:50;3.35;;;3.05;;
21494;SDS011;10909;53.590;10.054;2023-05-07T09:21:26;3.40;;;3.10;;
21494;SDS011;10909;53.590;10.054;2023-05-07T09:23:53;3.17;;;2.90;;
21494;SDS011;10909;53.590;10.054;2023-05-07T09:26:23;3.30;;;3.00;;
21494;SDS011;10909;53.590;10.054;2023-05-07T09:28:50;3.33;;;3.03;;
21494;SDS011;10909;53.590;10.054;2023-05-07T09:31:16;2.83;;;2.58;;
21494;SDS011;10909;53.590;10.054;2023-05-07T09:33:45;3.42;;;3.05;;
21494;SDS011;10909;53.590;10.054;2023-05-07T09:36:11;3.35;;;3.03;;
21494;SDS011;10909;53.590;10.054;2023-05-07T09:38:37;3.60;;;3.25;;
21494;SDS011;10909;53.590;10.054;2023-05-07T09:41:04;3.15;;;2.85;;
21494;SDS011;10909;53.590;10.054;2023-05-07T09:43:32;3.20;;;2.90;;
21494;SDS011;10909;53.590;10.054;2023-05-07T09:46:02;3.30;;;3.00;;
21494;SDS011;10909;53.590;10.054;2023-05-07T09:48:50;2.97;;;2.67;;
21494;SDS011;10909;53.590;10.054;2023-05-07T09:51:32;3.25;;;2.95;;
21494;SDS011;10909;53.590;10.054;2023-05-07T09:54:09;3.08;;;2.83;;
21494;SDS011;10909;53.590;10.054;2023-05-07T09:56:35;5.15;;;3.45;;
21494;SDS011;10909;53.590;10.054;2023-05-07T09:59:02;3.47;;;3.17;;
21494;SDS011;10909;53.590;10.054;2023-05-07T10:01:31;2.95;;;2.70;;
21494;SDS011;10909;53.590;10.054;2023-05-07T10:03:58;3.08;;;2.78;;
21494;SDS011;10909;53.590;10.054;2023-05-07T10:06:29;3.60;;;3.30;;
21494;SDS011;10909;53.590;10.054;2023-05-07T10:08:55;3.10;;;2.90;;
21494;SDS011;10909;53.590;10.054;2023-05-07T10:11:22;2.88;;;2.60;;
21494;SDS011;10909;53.590;10.054;2023-05-07T10:13:48;3.10;;;2.80;;
21494;SDS011;10909;53.590;10.054;2023-05-07T10:16:15;3.53;;;2.83;;
21494;SDS011;10909;53.590;10.054;2023-05-07T10:18:42;3.45;;;3.15;;
21494;SDS011;10909;53.590;10.054;2023-05-07T10:21:14;4.15;;;3.40;;
21494;SDS011;10909;53.590;10.054;2023-05-07T10:23:48;3.28;;;2.97;;
21494;SDS011;10909;53.590;10.054;2023-05-07T10:26:17;3.40;;;3.10;;
21494;SDS011;10909;53.590;10.054;2023-05-07T10:28:46;3.28;;;2.97;;
21494;SDS011;10909;53.590;10.054;2023-05-07T10:33:41;5.68;;;3.00;;
21494;SDS011;10909;53.590;10.054;2023-05-07T10:36:08;2.90;;;2.60;;
21494;SDS011;10909;53.590;10.054;2023-05-07T10:38:34;2.72;;;2.53;;
21494;SDS011;10909;53.590;10.054;2023-05-07T10:41:00;3.30;;;2.83;;
21494;SDS011;10909;53.590;10.054;2023-05-07T10:43:39;2.78;;;2.58;;
21494;SDS011;10909;53.590;10.054;2023-05-07T10:46:18;2.90;;;2.70;;
21494;SDS011;10909;53.590;10.054;2023-05-07T10:51:28;3.17;;;2.83;;
21494;SDS011;10909;53.590;10.054;2023-05-07T10:54:41;2.85;;;2.65;;
21494;SDS011;10909;53.590;10.054;2023-05-07T10:56:44;3.00;;;2.72;;
21494;SDS011;10909;53.590;10.054;2023-05-07T11:01:49;2.72;;;2.53;;
21494;SDS011;10909;53.590;10.054;2023-05-07T11:04:20;3.03;;;2.70;;
21494;SDS011;10909;53.590;10.054;2023-05-07T11:15:08;2.67;;;2.47;;
21494;SDS011;10909;53.590;10.054;2023-05-07T11:17:51;2.40;;;2.20;;
21494;SDS011;10909;53.590;10.054;2023-05-07T11:20:18;3.15;;;2.35;;
21494;SDS011;10909;53.590;10.054;2023-05-07T11:22:45;3.72;;;2.30;;
21494;SDS011;10909;53.590;10.054;2023-05-07T11:25:11;2.20;;;2.00;;
21494;SDS011;10909;53.590;10.054;2023-05-07T11:27:44;2.10;;;2.00;;
21494;SDS011;10909;53.590;10.054;2023-05-07T11:30:10;2.83;;;2.42;;
21494;SDS011;10909;53.590;10.054;2023-05-07T11:32:43;2.47;;;2.00;;
21494;SDS011;10909;53.590;10.054;2023-05-07T11:35:12;2.05;;;1.85;;
21494;SDS011;10909;53.590;10.054;2023-05-07T11:37:40;2.20;;;2.00;;
21494;SDS011;10909;53.590;10.054;2023-05-07T11:40:08;2.15;;;2.00;;
21494;SDS011;10909;53.590;10.054;2023-05-07T11:42:37;2.40;;;2.20;;
21494;SDS011;10909;53.590;10.054;2023-05-07T11:45:06;3.17;;;2.22;;
21494;SDS011;10909;53.590;10.054;2023-05-07T11:47:33;5.18;;;2.28;;
21494;SDS011;10909;53.590;10.054;2023-05-07T11:50:03;2.25;;;2.05;;
21494;SDS011;10909;53.590;10.054;2023-05-07T11:52:31;2.42;;;2.22;;
21494;SDS011;10909;53.590;10.054;2023-05-07T11:54:58;2.17;;;1.98;;
21494;SDS011;10909;53.590;10.054;2023-05-07T11:57:32;2.13;;;1.83;;
21494;SDS011;10909;53.590;10.054;2023-05-07T11:59:58;2.10;;;1.90;;
21494;SDS011;10909;53.590;10.054;2023-05-07T12:02:26;1.73;;;1.63;;
21494;SDS011;10909;53.590;10.054;2023-05-07T12:04:53;1.80;;;1.70;;
21494;SDS011;10909;53.590;10.054;2023-05-07T12:07:20;2.25;;;1.75;;
21494;SDS011;10909;53.590;10.054;2023-05-07T12:09:46;1.80;;;1.70;;
21494;SDS011;10909;53.590;10.054;2023-05-07T12:12:12;3.17;;;1.70;;
21494;SDS011;10909;53.590;10.054;2023-05-07T12:14:44;1.92;;;1.83;;
21494;SDS011;10909;53.590;10.054;2023-05-07T12:17:11;2.10;;;1.90;;
21494;SDS011;10909;53.590;10.054;2023-05-07T12:19:39;1.80;;;1.70;;
21494;SDS011;10909;53.590;10.054;2023-05-07T12:22:07;1.95;;;1.60;;
21494;SDS011;10909;53.590;10.054;2023-05-07T12:24:47;1.80;;;1.70;;
21494;SDS011;10909;53.590;10.054;2023-05-07T12:27:15;1.55;;;1.40;;
21494;SDS011;10909;53.590;10.054;2023-05-07T12:29:45;1.77;;;1.65;;
21494;SDS011;10909;53.590;10.054;2023-05-07T12:32:18;1.70;;;1.60;;
21494;SDS011;10909;53.590;10.054;2023-05-07T12:34:44;1.67;;;1.58;;
21494;SDS011;10909;53.590;10.054;2023-05-07T12:37:10;1.73;;;1.58;;
21494;SDS011;10909;53.590;10.054;2023-05-07T12:39:37;2.00;;;1.60;;
21494;SDS011;10909;53.590;10.054;2023-05-07T12:42:08;2.83;;;1.67;;
21494;SDS011;10909;53.590;10.054;2023-05-07T12:44:41;2.22;;;1.70;;
21494;SDS011;10909;53.590;10.054;2023-05-07T12:47:10;1.63;;;1.52;;
21494;SDS011;10909;53.590;10.054;2023-05-07T12:49:35;1.88;;;1.42;;
21494;SDS011;10909;53.590;10.054;2023-05-07T12:52:05;1.30;;;1.20;;
21494;SDS011;10909;53.590;10.054;2023-05-07T12:54:35;1.27;;;1.17;;
21494;SDS011;10909;53.590;10.054;2023-05-07T12:57:03;1.50;;;1.40;;
21494;SDS011;10909;53.590;10.054;2023-05-07T12:59:31;2.40;;;1.50;;
21494;SDS011;10909;53.590;10.054;2023-05-07T13:01:58;1.30;;;1.15;;
21494;SDS011;10909;53.590;10.054;2023-05-07T13:04:26;1.48;;;1.38;;
21494;SDS011;10909;53.590;10.054;2023-05-07T13:06:52;1.67;;;1.42;;
21494;SDS011;10909;53.590;10.054;2023-05-07T13:09:18;1.98;;;1.30;;
21494;SDS011;10909;53.590;10.054;2023-05-07T13:11:43;1.40;;;1.30;;
21494;SDS011;10909;53.590;10.054;2023-05-07T13:14:09;1.50;;;1.40;;
21494;SDS011;10909;53.590;10.054;2023-05-07T13:16:35;1.40;;;1.30;;
21494;SDS011;10909;53.590;10.054;2023-05-07T13:19:02;1.40;;;1.30;;
21494;SDS011;10909;53.590;10.054;2023-05-07T13:21:27;1.40;;;1.30;;
21494;SDS011;10909;53.590;10.054;2023-05-07T13:23:53;1.38;;;1.27;;
21494;SDS011;10909;53.590;10.054;2023-05-07T13:26:19;1.58;;;1.48;;
21494;SDS011;10909;53.590;10.054;2023-05-07T13:28:45;1.42;;;1.20;;
21494;SDS011;10909;53.590;10.054;2023-05-07T13:31:11;2.60;;;1.42;;
21494;SDS011;10909;53.590;10.054;2023-05-07T13:33:38;1.52;;;1.42;;
21494;SDS011;10909;53.590;10.054;2023-05-07T13:36:04;1.75;;;1.52;;
21494;SDS011;10909;53.590;10.054;2023-05-07T13:38:31;1.42;;;1.33;;
21494;SDS011;10909;53.590;10.054;2023-05-07T13:40:57;1.90;;;1.20;;
21494;SDS011;10909;53.590;10.054;2023-05-07T13:43:23;1.85;;;1.20;;
21494;SDS011;10909;53.590;10.054;2023-05-07T13:45:49;1.30;;;1.20;;
21494;SDS011;10909;53.590;10.054;2023-05-07T13:48:15;1.38;;;1.27;;
21494;SDS011;10909;53.590;10.054;2023-05-07T13:50:41;1.45;;;1.27;;
21494;SDS011;10909;53.590;10.054;2023-05-07T13:53:07;1.60;;;1.30;;
21494;SDS011;10909;53.590;10.054;2023-05-07T13:55:33;1.73;;;1.20;;
21494;SDS011;10909;53.590;10.054;2023-05-07T13:58:00;1.33;;;1.13;;
21494;SDS011;10909;53.590;10.054;2023-05-07T14:00:27;1.30;;;1.20;;
21494;SDS011;10909;53.590;10.054;2023-05-07T14:02:54;1.40;;;1.30;;
21494;SDS011;10909;53.590;10.054;2023-05-07T14:05:21;1.55;;;1.20;;
21494;SDS011;10909;53.590;10.054;2023-05-07T14:07:49;1.52;;;1.42;;
21494;SDS011;10909;53.590;10.054;2023-05-07T14:10:21;1.92;;;1.30;;
21494;SDS011;10909;53.590;10.054;2023-05-07T14:12:47;1.40;;;1.20;;
21494;SDS011;10909;53.590;10.054;2023-05-07T14:15:13;1.40;;;1.30;;
21494;SDS011;10909;53.590;10.054;2023-05-07T14:17:38;1.40;;;1.30;;
21494;SDS011;10909;53.590;10.054;2023-05-07T14:20:05;1.30;;;1.15;;
21494;SDS011;10909;53.590;10.054;2023-05-07T14:22:31;1.20;;;1.10;;
21494;SDS011;10909;53.590;10.054;2023-05-07T14:24:57;1.60;;;1.00;;
21494;SDS011;10909;53.590;10.054;2023-05-07T14:27:23;1.10;;;1.00;;
21494;SDS011;10909;53.590;10.054;2023-05-07T14:29:49;1.40;;;1.30;;
21494;SDS011;10909;53.590;10.054;2023-05-07T14:32:16;1.73;;;1.25;;
21494;SDS011;10909;53.590;10.054;2023-05-07T14:34:45;2.45;;;1.15;;
21494;SDS011;10909;53.590;10.054;2023-05-07T14:37:11;1.10;;;1.00;;
21494;SDS011;10909;53.590;10.054;2023-05-07T14:39:37;1.38;;;1.23;;
21494;SDS011;10909;53.590;10.054;2023-05-07T14:42:03;1.55;;;1.20;;
21494;SDS011;10909;53.590;10.054;2023-05-07T14:44:30;1.27;;;1.10;;
21494;SDS011;10909;53.590;10.054;2023-05-07T14:46:56;2.58;;;1.42;;
21494;SDS011;10909;53.590;10.054;2023-05-07T14:49:22;1.45;;;1.35;;
21494;SDS011;10909;53.590;10.054;2023-05-07T14:51:48;1.33;;;1.15;;